createdAt,value
2023-09-14T00:00:46.078Z,3.20
2023-09-14T00:06:05.951Z,3.20
2023-09-14T00:11:14.095Z,3.20
2023-09-14T00:16:21.563Z,3.30
2023-09-14T00:21:29.115Z,3.30
2023-09-14T00:26:36.718Z,3.40
2023-09-14T00:31:44.238Z,3.60
2023-09-14T00:36:51.552Z,3.40
2023-09-14T00:41:58.920Z,3.20
2023-09-14T00:47:06.512Z,3.50
2023-09-14T00:52:15.326Z,3.40
2023-09-14T00:57:22.701Z,3.90
2023-09-14T01:02:30.660Z,3.50
2023-09-14T01:07:38.953Z,4.20
2023-09-14T01:12:48.364Z,3.90
2023-09-14T01:18:04.261Z,4.20
2023-09-14T01:23:29.352Z,4.10
2023-09-14T01:28:36.638Z,4.50
2023-09-14T01:33:44.636Z,5.10
2023-09-14T01:38:56.125Z,5.70
2023-09-14T01:44:05.042Z,5.40
2023-09-14T01:49:12.760Z,5.50
2023-09-14T01:54:20.129Z,5.90
2023-09-14T01:59:27.691Z,5.90
2023-09-14T02:04:35.090Z,6.20
2023-09-14T02:09:42.689Z,6.00
2023-09-14T02:14:51.448Z,6.50
2023-09-14T02:19:59.362Z,6.30
2023-09-14T02:25:07.889Z,6.70
2023-09-14T02:30:15.787Z,7.30
2023-09-14T02:35:23.086Z,6.00
2023-09-14T02:40:30.676Z,6.70
2023-09-14T02:45:38.008Z,6.40
2023-09-14T02:50:46.248Z,6.60
2023-09-14T02:55:53.445Z,6.40
2023-09-14T03:01:01.551Z,7.40
2023-09-14T03:06:09.377Z,6.60
2023-09-14T03:11:17.102Z,7.30
2023-09-14T03:16:24.601Z,6.40
2023-09-14T03:21:32.102Z,6.70
2023-09-14T03:26:39.876Z,7.70
2023-09-14T03:31:47.347Z,7.50
2023-09-14T03:36:54.675Z,7.20
2023-09-14T03:42:02.062Z,7.60
2023-09-14T03:47:10.605Z,7.90
2023-09-14T03:52:17.981Z,10.40
2023-09-14T03:57:25.959Z,13.10
2023-09-14T04:02:33.997Z,14.50
2023-09-14T04:07:41.446Z,16.20
2023-09-14T04:12:48.796Z,18.90
2023-09-14T04:17:55.987Z,14.60
2023-09-14T04:23:03.487Z,13.30
2023-09-14T04:28:11.420Z,12.60
2023-09-14T04:33:20.713Z,13.70
2023-09-14T04:38:28.086Z,11.60
2023-09-14T04:43:37.406Z,12.30
2023-09-14T04:48:45.032Z,12.10
2023-09-14T04:53:55.339Z,12.40
2023-09-14T04:59:05.195Z,13.20
2023-09-14T05:04:13.560Z,12.00
2023-09-14T05:09:21.672Z,12.80
2023-09-14T05:14:29.423Z,10.10
2023-09-14T05:19:36.805Z,11.50
2023-09-14T05:24:44.692Z,11.80
2023-09-14T05:29:53.184Z,7.40
2023-09-14T05:35:00.572Z,6.90
2023-09-14T05:40:13.439Z,7.60
2023-09-14T05:45:23.342Z,10.50
2023-09-14T05:50:31.085Z,10.50
2023-09-14T05:55:38.842Z,9.70
2023-09-14T06:00:48.214Z,8.90
2023-09-14T06:05:57.038Z,8.90
2023-09-14T06:11:06.061Z,8.60
2023-09-14T06:16:13.673Z,8.50
2023-09-14T06:21:21.097Z,8.60
2023-09-14T06:26:30.473Z,7.50
2023-09-14T06:31:38.108Z,6.40
2023-09-14T06:36:45.451Z,5.80
2023-09-14T06:41:52.776Z,6.10
2023-09-14T06:47:01.880Z,6.10
2023-09-14T06:52:09.735Z,6.30
2023-09-14T06:57:17.415Z,6.80
2023-09-14T07:02:24.681Z,5.30
2023-09-14T07:07:32.229Z,5.10
2023-09-14T07:12:39.554Z,5.60
2023-09-14T07:17:46.775Z,5.70
2023-09-14T07:22:55.300Z,4.60
2023-09-14T07:28:02.636Z,5.40
2023-09-14T07:33:09.983Z,4.80
2023-09-14T07:38:17.678Z,5.00
2023-09-14T07:43:24.980Z,4.90
2023-09-14T07:48:32.305Z,5.20
2023-09-14T07:53:39.771Z,5.70
2023-09-14T07:58:47.251Z,6.20
2023-09-14T08:03:54.604Z,4.90
2023-09-14T08:09:02.956Z,5.40
2023-09-14T08:14:10.379Z,5.90
2023-09-14T08:19:18.152Z,6.20
2023-09-14T08:24:25.378Z,5.50
2023-09-14T08:29:32.659Z,5.80
2023-09-14T08:34:39.926Z,5.40
2023-09-14T08:39:47.225Z,4.30
2023-09-14T08:44:56.481Z,5.40
2023-09-14T08:50:06.166Z,4.30
2023-09-14T08:55:15.231Z,4.90
2023-09-14T09:00:22.561Z,5.60
2023-09-14T09:05:30.477Z,4.20
2023-09-14T09:10:37.940Z,6.00
2023-09-14T09:15:45.721Z,4.80
2023-09-14T09:20:53.474Z,5.10
2023-09-14T09:26:01.488Z,4.10
2023-09-14T09:31:08.855Z,4.80
2023-09-14T09:36:20.915Z,5.70
2023-09-14T09:41:28.234Z,5.00
2023-09-14T09:46:37.461Z,5.20
2023-09-14T09:51:45.880Z,5.10
2023-09-14T09:56:54.001Z,5.30
2023-09-14T10:02:01.242Z,5.00
2023-09-14T10:07:11.542Z,4.90
2023-09-14T10:12:18.910Z,4.60
2023-09-14T10:17:26.828Z,4.20
2023-09-14T10:22:34.660Z,4.00
2023-09-14T10:27:43.735Z,3.40
2023-09-14T10:32:54.078Z,4.70
2023-09-14T10:43:11.594Z,4.40
2023-09-14T10:53:28.356Z,4.20
2023-09-14T10:58:45.204Z,4.00
2023-09-14T11:04:14.787Z,4.50
2023-09-14T11:09:24.753Z,3.80
2023-09-14T11:14:32.681Z,4.70
2023-09-14T11:19:59.005Z,4.70
2023-09-14T11:25:24.742Z,4.20
2023-09-14T11:30:42.740Z,3.50
2023-09-14T11:35:56.213Z,3.70
2023-09-14T11:41:23.308Z,3.70
2023-09-14T11:46:34.608Z,4.30
2023-09-14T11:51:42.273Z,4.20
2023-09-14T11:56:50.315Z,4.20
2023-09-14T12:01:57.807Z,4.00
2023-09-14T12:07:06.053Z,3.50
2023-09-14T12:12:25.978Z,3.70
2023-09-14T12:17:33.662Z,4.30
2023-09-14T12:22:41.763Z,4.40
2023-09-14T12:27:49.832Z,3.50
2023-09-14T12:32:57.670Z,4.20
2023-09-14T12:38:06.030Z,3.20
2023-09-14T12:43:14.445Z,4.00
2023-09-14T12:48:21.842Z,3.90
2023-09-14T12:53:29.252Z,3.90
2023-09-14T12:58:36.609Z,3.30
2023-09-14T13:03:44.300Z,3.80
2023-09-14T13:08:54.844Z,3.60
2023-09-14T13:14:02.131Z,3.80
2023-09-14T13:19:09.474Z,3.60
2023-09-14T13:24:16.673Z,4.10
2023-09-14T13:29:23.976Z,3.50
2023-09-14T13:34:31.298Z,4.10
2023-09-14T13:39:38.556Z,3.40
2023-09-14T13:44:45.908Z,4.00
2023-09-14T13:49:53.503Z,3.80
2023-09-14T13:55:00.727Z,3.50
2023-09-14T14:00:11.946Z,3.20
2023-09-14T14:05:20.481Z,4.10
2023-09-14T14:10:27.764Z,3.70
2023-09-14T14:15:35.799Z,3.50
2023-09-14T14:20:43.249Z,3.70
2023-09-14T14:25:50.576Z,3.70
2023-09-14T14:30:59.255Z,3.10
2023-09-14T14:36:07.192Z,3.00
2023-09-14T14:41:36.676Z,3.20
2023-09-14T14:46:42.053Z,2.90
2023-09-14T14:51:49.380Z,3.30
2023-09-14T14:56:56.852Z,3.10
2023-09-14T15:02:04.190Z,3.40
2023-09-14T15:07:13.397Z,3.10
2023-09-14T15:12:20.899Z,3.40
2023-09-14T15:17:28.285Z,3.50
2023-09-14T15:22:35.766Z,3.20
2023-09-14T15:27:43.021Z,3.70
2023-09-14T15:32:50.359Z,5.00
2023-09-14T15:37:57.961Z,4.70
2023-09-14T15:43:05.587Z,4.20
2023-09-14T15:48:15.601Z,4.40
2023-09-14T15:53:24.986Z,4.10
2023-09-14T15:58:32.482Z,3.80
2023-09-14T16:03:39.854Z,4.30
2023-09-14T16:08:47.465Z,4.00
2023-09-14T16:13:55.122Z,4.00
2023-09-14T16:19:02.319Z,4.40
2023-09-14T16:24:12.238Z,4.00
2023-09-14T16:29:20.139Z,4.40
2023-09-14T16:34:27.503Z,4.10
2023-09-14T16:39:34.915Z,3.40
2023-09-14T16:44:42.710Z,4.00
2023-09-14T16:49:50.147Z,3.90
2023-09-14T16:54:57.493Z,4.50
2023-09-14T17:00:08.712Z,4.90
2023-09-14T17:05:18.313Z,4.40
2023-09-14T17:10:26.879Z,3.80
2023-09-14T17:15:34.362Z,3.70
2023-09-14T17:20:41.618Z,4.50
2023-09-14T17:25:54.649Z,4.90
2023-09-14T17:31:02.059Z,5.00
2023-09-14T17:36:09.713Z,4.50
2023-09-14T17:41:17.055Z,4.60
2023-09-14T17:46:24.872Z,4.20
2023-09-14T17:51:32.192Z,4.90
2023-09-14T17:56:39.419Z,4.30
2023-09-14T18:01:47.094Z,4.60
2023-09-14T18:06:54.380Z,4.40
2023-09-14T18:12:08.029Z,4.90
2023-09-14T18:17:16.046Z,5.00
2023-09-14T18:22:23.441Z,5.00
2023-09-14T18:27:32.970Z,5.20
2023-09-14T18:32:55.901Z,5.70
2023-09-14T18:38:03.106Z,5.80
2023-09-14T18:43:11.432Z,6.50
2023-09-14T18:48:19.177Z,6.40
2023-09-14T18:53:26.437Z,6.00
2023-09-14T19:03:43.982Z,6.80
2023-09-14T19:08:53.078Z,7.70
2023-09-14T19:14:00.766Z,6.90
2023-09-14T19:19:08.231Z,7.20
2023-09-14T19:24:15.604Z,6.90
2023-09-14T19:29:22.823Z,8.00
2023-09-14T19:34:30.271Z,8.30
2023-09-14T19:39:37.579Z,7.30
2023-09-14T19:44:48.622Z,7.90
2023-09-14T19:49:55.990Z,7.50
2023-09-14T19:55:03.640Z,8.10
2023-09-14T20:00:12.642Z,8.80
2023-09-14T20:05:20.513Z,10.40
2023-09-14T20:10:27.807Z,9.70
2023-09-14T20:15:36.136Z,9.20
2023-09-14T20:20:43.710Z,9.80
2023-09-14T20:25:51.491Z,11.20
2023-09-14T20:30:59.367Z,10.50
2023-09-14T20:36:07.208Z,11.40
2023-09-14T20:41:15.901Z,10.80
2023-09-14T20:46:23.786Z,10.90
2023-09-14T20:51:31.184Z,11.00
2023-09-14T20:56:38.582Z,10.30
2023-09-14T21:01:46.033Z,10.60
2023-09-14T21:06:54.238Z,10.80
2023-09-14T21:12:01.867Z,11.20
2023-09-14T21:17:09.310Z,9.60
2023-09-14T21:22:16.664Z,11.00
2023-09-14T21:27:24.198Z,10.40
2023-09-14T21:32:31.909Z,11.50
2023-09-14T21:37:39.181Z,11.00
2023-09-14T21:42:47.868Z,11.20
2023-09-14T21:47:55.228Z,11.00
2023-09-14T21:53:02.470Z,11.30
2023-09-14T21:58:09.719Z,10.50
2023-09-14T22:03:17.006Z,10.00
2023-09-14T22:08:24.764Z,9.70
2023-09-14T22:13:31.940Z,11.10
2023-09-14T22:18:40.087Z,10.20
2023-09-14T22:23:48.781Z,10.50
2023-09-14T22:28:56.150Z,9.60
2023-09-14T22:34:03.713Z,9.40
2023-09-14T22:39:11.649Z,9.90
2023-09-14T22:44:19.057Z,11.00
2023-09-14T22:49:27.675Z,10.20
2023-09-14T22:54:35.333Z,10.30
2023-09-14T22:59:42.658Z,11.30
2023-09-14T23:04:49.881Z,9.50
2023-09-14T23:09:57.044Z,10.00
2023-09-14T23:15:08.764Z,9.50
2023-09-14T23:20:25.156Z,9.40
2023-09-14T23:25:33.946Z,9.00
2023-09-14T23:30:41.167Z,8.00
2023-09-14T23:35:48.424Z,9.50
2023-09-14T23:40:56.074Z,9.30
2023-09-14T23:46:04.933Z,8.50
2023-09-14T23:51:12.370Z,9.10
2023-09-14T23:56:19.604Z,8.80
